Time;durP1;ratioP1;P1;durP2;ratioP2;P2;SDS_P1;SDS_P2;PMS_P1;PMS_P2;Temp;Humidity;BMP_temperature;BMP_pressure;BME280_temperature;BME280_humidity;BME280_pressure;Samples;Min_cycle;Max_cycle;Signal;HPM_P1;HPM_P2
2022/03/29 00:02:24;;;;;;;59.28;33.30;;;;;;;;;;4955366;29;20058;-73
2022/03/29 00:04:52;;;;;;;58.08;33.53;;;;;;;;;;4954458;29;20114;-73
2022/03/29 00:07:19;;;;;;;63.70;33.70;;;;;;;;;;4954817;29;20066;-72
2022/03/29 00:09:47;;;;;;;62.28;32.88;;;;;;;;;;4955064;29;20557;-73
2022/03/29 00:12:15;;;;;;;60.65;33.55;;;;;;;;;;4954889;29;20035;-72
2022/03/29 00:14:42;;;;;;;58.45;33.05;;;;;;;;;;4953813;29;20055;-73
2022/03/29 00:17:13;;;;;;;58.45;34.78;;;;;;;;;;4955421;29;20050;-73
2022/03/29 00:19:44;;;;;;;59.33;34.13;;;;;;;;;;4955322;29;20039;-73
2022/03/29 00:22:12;;;;;;;61.15;33.17;;;;;;;;;;4954337;29;20604;-73
2022/03/29 00:24:41;;;;;;;61.25;33.70;;;;;;;;;;4954328;29;20078;-73
2022/03/29 00:27:10;;;;;;;64.03;33.55;;;;;;;;;;4955052;29;20502;-73
2022/03/29 00:29:39;;;;;;;66.50;32.67;;;;;;;;;;4955397;29;20055;-73
2022/03/29 00:32:13;;;;;;;61.65;33.45;;;;;;;;;;4955266;29;20053;-73
2022/03/29 00:34:45;;;;;;;64.17;33.30;;;;;;;;;;4955303;29;20442;-72
2022/03/29 00:37:15;;;;;;;56.78;30.23;;;;;;;;;;4955070;29;20051;-73
2022/03/29 00:39:48;;;;;;;54.58;28.13;;;;;;;;;;4955355;29;20036;-73
2022/03/29 00:42:16;;;;;;;52.38;28.73;;;;;;;;;;4955343;29;20058;-73
2022/03/29 00:44:49;;;;;;;47.47;27.77;;;;;;;;;;4955293;29;20047;-73
2022/03/29 00:47:16;;;;;;;55.92;27.95;;;;;;;;;;4955083;29;20126;-73
2022/03/29 00:49:46;;;;;;;50.03;27.35;;;;;;;;;;4954933;29;20043;-73
2022/03/29 00:52:14;;;;;;;50.83;29.17;;;;;;;;;;4953272;29;20039;-73
2022/03/29 00:54:43;;;;;;;48.92;28.67;;;;;;;;;;4954262;29;20040;-73
2022/03/29 00:57:18;;;;;;;52.92;31.15;;;;;;;;;;4955100;29;20453;-73
2022/03/29 00:59:46;;;;;;;;;;;;;;;;;;4955330;29;20095;-73
2022/03/29 01:05:28;;;;;;;58.50;31.33;;;;;;;;;;4955152;29;20059;-73
2022/03/29 01:07:56;;;;;;;53.10;30.73;;;;;;;;;;4953906;29;20078;-73
2022/03/29 01:10:53;;;;;;;57.72;31.58;;;;;;;;;;4954744;29;20051;-73
2022/03/29 01:13:21;;;;;;;61.88;32.08;;;;;;;;;;4955198;29;20466;-73
2022/03/29 01:15:50;;;;;;;52.83;30.73;;;;;;;;;;4954168;29;20059;-73
2022/03/29 01:18:20;;;;;;;60.58;33.15;;;;;;;;;;4954394;29;20138;-73
2022/03/29 01:21:12;;;;;;;53.83;31.65;;;;;;;;;;4938268;29;20114;-73
2022/03/29 01:23:40;;;;;;;59.33;33.20;;;;;;;;;;4953157;29;20051;-74
2022/03/29 01:26:07;;;;;;;56.58;32.08;;;;;;;;;;4954169;29;20062;-74
2022/03/29 01:29:00;;;;;;;56.38;31.60;;;;;;;;;;4954734;29;20131;-74
2022/03/29 01:35:31;;;;;;;51.53;29.33;;;;;;;;;;4954933;29;20124;-75
2022/03/29 01:37:58;;;;;;;51.95;28.95;;;;;;;;;;4954120;29;20043;-74
2022/03/29 01:40:51;;;;;;;51.25;29.80;;;;;;;;;;4937657;28;20049;-74
2022/03/29 01:43:23;;;;;;;53.55;28.67;;;;;;;;;;4958196;29;20066;-74
2022/03/29 01:45:59;;;;;;;51.42;29.92;;;;;;;;;;4958051;29;20493;-74
2022/03/29 01:48:27;;;;;;;50.78;28.17;;;;;;;;;;4958153;29;20379;-74
2022/03/29 01:50:55;;;;;;;49.75;27.30;;;;;;;;;;4956843;29;20040;-73
2022/03/29 01:53:24;;;;;;;48.20;28.30;;;;;;;;;;4957298;29;20553;-74
2022/03/29 01:55:57;;;;;;;47.92;28.20;;;;;;;;;;4957899;29;20035;-74
2022/03/29 01:58:26;;;;;;;51.78;28.05;;;;;;;;;;4957694;29;20071;-74
2022/03/29 02:00:55;;;;;;;49.42;28.45;;;;;;;;;;4957560;29;20051;-74
2022/03/29 02:03:24;;;;;;;49.92;27.77;;;;;;;;;;4957556;29;20039;-74
2022/03/29 02:05:51;;;;;;;53.75;27.60;;;;;;;;;;4957083;29;20573;-74
2022/03/29 02:08:19;;;;;;;51.00;27.65;;;;;;;;;;4957012;29;20055;-75
2022/03/29 02:10:48;;;;;;;48.35;27.40;;;;;;;;;;4957347;29;20055;-74
2022/03/29 02:13:18;;;;;;;49.97;28.05;;;;;;;;;;4957870;29;20421;-74
2022/03/29 02:15:46;;;;;;;46.78;26.40;;;;;;;;;;4957147;29;20044;-74
2022/03/29 02:18:14;;;;;;;47.63;27.52;;;;;;;;;;4957267;29;20498;-74
2022/03/29 02:20:42;;;;;;;62.08;30.25;;;;;;;;;;4939959;29;20063;-74
2022/03/29 02:23:15;;;;;;;48.17;27.33;;;;;;;;;;4956986;29;20047;-74
2022/03/29 02:25:47;;;;;;;49.38;27.10;;;;;;;;;;4956186;29;20071;-74
2022/03/29 02:28:16;;;;;;;50.08;27.40;;;;;;;;;;4957168;29;20486;-73
2022/03/29 02:30:50;;;;;;;53.97;29.27;;;;;;;;;;4957156;29;20044;-74
2022/03/29 02:33:18;;;;;;;54.03;26.70;;;;;;;;;;4957092;29;20047;-73
2022/03/29 02:35:46;;;;;;;54.75;27.77;;;;;;;;;;4956435;29;20621;-74
2022/03/29 02:38:14;;;;;;;49.92;26.55;;;;;;;;;;4955447;29;20050;-74
2022/03/29 02:40:48;;;;;;;48.13;27.40;;;;;;;;;;4957203;29;20063;-73
2022/03/29 02:43:15;;;;;;;48.47;25.63;;;;;;;;;;4957110;29;20486;-73
2022/03/29 02:45:46;;;;;;;43.35;24.45;;;;;;;;;;4956720;29;20433;-73
2022/03/29 02:48:16;;;;;;;42.92;25.15;;;;;;;;;;4956746;29;20063;-73
2022/03/29 02:50:44;;;;;;;50.65;25.45;;;;;;;;;;4956936;29;20044;-74
2022/03/29 02:53:11;;;;;;;54.08;26.70;;;;;;;;;;4953727;28;20065;-73
2022/03/29 02:55:40;;;;;;;50.05;25.77;;;;;;;;;;4956761;29;20469;-73
2022/03/29 02:58:07;;;;;;;49.35;25.58;;;;;;;;;;4956669;29;20087;-73
2022/03/29 03:00:44;;;;;;;52.72;23.83;;;;;;;;;;4956824;29;20410;-73
2022/03/29 03:03:13;;;;;;;46.83;23.63;;;;;;;;;;4956319;29;20039;-74
2022/03/29 03:05:41;;;;;;;48.55;21.67;;;;;;;;;;4956552;29;20118;-74
2022/03/29 03:08:08;;;;;;;44.53;21.77;;;;;;;;;;4954176;29;20054;-73
2022/03/29 03:10:38;;;;;;;43.60;21.70;;;;;;;;;;4956647;29;20047;-73
2022/03/29 03:13:06;;;;;;;40.50;21.10;;;;;;;;;;4956546;29;20043;-74
2022/03/29 03:15:34;;;;;;;37.30;20.65;;;;;;;;;;4955271;29;20043;-74
2022/03/29 03:18:03;;;;;;;38.42;21.15;;;;;;;;;;4956365;29;20051;-73
2022/03/29 03:20:31;;;;;;;43.42;20.38;;;;;;;;;;4956231;29;20458;-73
2022/03/29 03:22:59;;;;;;;46.13;21.38;;;;;;;;;;4955770;29;20046;-73
2022/03/29 03:25:27;;;;;;;33.90;19.92;;;;;;;;;;4956136;29;20039;-74
2022/03/29 03:27:55;;;;;;;39.85;21.15;;;;;;;;;;4955315;29;20043;-73
2022/03/29 03:30:23;;;;;;;85.85;22.88;;;;;;;;;;4955728;29;20070;-73
2022/03/29 03:32:53;;;;;;;35.95;19.85;;;;;;;;;;4955914;29;20508;-73
2022/03/29 03:35:27;;;;;;;40.83;20.27;;;;;;;;;;4955994;29;20401;-73
2022/03/29 03:37:58;;;;;;;40.33;19.45;;;;;;;;;;4956208;29;20509;-73
2022/03/29 03:40:26;;;;;;;41.63;20.13;;;;;;;;;;4955129;29;20047;-73
2022/03/29 03:42:57;;;;;;;35.83;19.35;;;;;;;;;;4956078;29;20379;-73
2022/03/29 03:45:30;;;;;;;38.00;19.25;;;;;;;;;;4955939;29;20118;-73
2022/03/29 03:47:58;;;;;;;32.38;19.08;;;;;;;;;;4955428;29;20047;-73
2022/03/29 03:50:30;;;;;;;44.15;19.20;;;;;;;;;;4955935;29;20046;-74
2022/03/29 03:53:00;;;;;;;31.75;18.92;;;;;;;;;;4955666;29;20074;-74
2022/03/29 03:55:52;;;;;;;36.30;18.83;;;;;;;;;;4956015;29;20035;-73
2022/03/29 03:58:19;;;;;;;33.53;18.25;;;;;;;;;;4937351;29;20098;-73
2022/03/29 04:01:20;;;;;;;35.83;18.70;;;;;;;;;;4936448;29;20039;-74
2022/03/29 04:04:13;;;;;;;34.67;17.95;;;;;;;;;;4936180;29;20039;-74
2022/03/29 04:06:41;;;;;;;36.67;16.73;;;;;;;;;;4934664;29;20048;-74
2022/03/29 04:09:09;;;;;;;35.60;17.48;;;;;;;;;;4934967;29;20050;-74
2022/03/29 04:11:39;;;;;;;34.13;17.27;;;;;;;;;;4936348;29;20054;-74
2022/03/29 04:14:13;;;;;;;30.15;16.92;;;;;;;;;;4936462;29;20048;-74
2022/03/29 04:16:44;;;;;;;35.63;17.55;;;;;;;;;;4936297;29;20048;-74
2022/03/29 04:19:13;;;;;;;34.80;16.20;;;;;;;;;;4936238;29;20127;-73
2022/03/29 04:21:44;;;;;;;35.40;17.45;;;;;;;;;;4935934;29;20059;-73
2022/03/29 04:24:36;;;;;;;32.70;16.75;;;;;;;;;;4936419;29;20167;-74
2022/03/29 04:27:05;;;;;;;31.83;18.38;;;;;;;;;;4935908;29;20063;-74
2022/03/29 04:29:32;;;;;;;29.48;16.73;;;;;;;;;;4933852;29;20108;-74
2022/03/29 04:32:01;;;;;;;31.15;17.52;;;;;;;;;;4934988;29;20498;-73
2022/03/29 04:34:33;;;;;;;42.55;18.38;;;;;;;;;;4935778;29;20494;-73
2022/03/29 04:37:01;;;;;;;38.78;17.83;;;;;;;;;;4935738;29;20032;-74
2022/03/29 04:39:30;;;;;;;36.97;20.00;;;;;;;;;;4934244;29;20036;-73
2022/03/29 04:45:35;;;;;;;38.30;20.20;;;;;;;;;;4987411;23;20060;-73
2022/03/29 04:48:03;;;;;;;40.55;21.38;;;;;;;;;;4935593;29;20071;-73
2022/03/29 04:50:33;;;;;;;45.35;22.90;;;;;;;;;;4935934;29;20035;-74
2022/03/29 04:53:06;;;;;;;37.55;22.38;;;;;;;;;;4935969;29;20127;-73
2022/03/29 04:55:34;;;;;;;46.78;24.15;;;;;;;;;;4936301;29;20048;-73
2022/03/29 04:58:29;;;;;;;44.03;23.55;;;;;;;;;;4931246;29;20046;-74
2022/03/29 05:01:22;;;;;;;60.75;25.20;;;;;;;;;;4933973;29;20073;-74
2022/03/29 05:04:22;;;;;;;45.67;21.52;;;;;;;;;;4935832;29;20044;-74
2022/03/29 05:10:11;;;;;;;41.00;20.08;;;;;;;;;;4935466;29;20050;-73
2022/03/29 05:12:40;;;;;;;41.08;18.67;;;;;;;;;;4934989;29;20054;-73
2022/03/29 05:15:08;;;;;;;36.22;17.10;;;;;;;;;;4935498;29;20063;-73
2022/03/29 05:17:35;;;;;;;36.83;17.27;;;;;;;;;;4937865;29;20138;-74
2022/03/29 05:20:03;;;;;;;39.45;16.77;;;;;;;;;;4937881;29;20047;-74
2022/03/29 05:22:31;;;;;;;46.80;17.67;;;;;;;;;;4939117;29;20044;-73
2022/03/29 05:24:59;;;;;;;42.55;17.33;;;;;;;;;;4938763;29;20102;-73
2022/03/29 05:27:30;;;;;;;43.05;17.20;;;;;;;;;;4939053;29;20077;-73
2022/03/29 05:30:01;;;;;;;42.20;20.77;;;;;;;;;;4938979;29;20044;-73
2022/03/29 05:32:40;;;;;;;31.20;16.88;;;;;;;;;;4939336;29;20067;-74
2022/03/29 05:35:14;;;;;;;33.28;19.00;;;;;;;;;;4939005;29;20051;-73
2022/03/29 05:37:42;;;;;;;45.63;22.60;;;;;;;;;;4938965;29;20553;-73
2022/03/29 05:40:35;;;;;;;33.40;18.25;;;;;;;;;;4938969;29;20052;-73
2022/03/29 05:43:11;;;;;;;42.63;18.40;;;;;;;;;;4937536;29;20418;-72
2022/03/29 05:48:56;;;;;;;34.72;18.35;;;;;;;;;;4919784;29;20070;-73
2022/03/29 05:51:24;;;;;;;38.17;18.10;;;;;;;;;;4919295;29;20082;-73
2022/03/29 05:53:54;;;;;;;35.85;17.52;;;;;;;;;;4919903;29;20044;-74
2022/03/29 05:56:28;;;;;;;34.97;17.77;;;;;;;;;;4919647;29;20040;-73
2022/03/29 05:59:01;;;;;;;32.22;17.42;;;;;;;;;;4919803;29;20082;-73
2022/03/29 06:01:39;;;;;;;35.20;18.13;;;;;;;;;;4919767;29;20554;-73
2022/03/29 06:04:32;;;;;;;32.92;17.35;;;;;;;;;;4919619;29;20040;-73
2022/03/29 06:07:04;;;;;;;40.08;17.77;;;;;;;;;;4919693;29;20040;-73
2022/03/29 06:09:38;;;;;;;37.40;16.98;;;;;;;;;;4919383;29;20067;-73
2022/03/29 06:12:08;;;;;;;35.15;17.17;;;;;;;;;;4919469;29;20510;-73
2022/03/29 06:14:37;;;;;;;34.15;18.40;;;;;;;;;;4919089;29;20052;-74
2022/03/29 06:17:09;;;;;;;50.65;18.25;;;;;;;;;;4919237;29;20055;-73
2022/03/29 06:19:44;;;;;;;42.75;17.52;;;;;;;;;;4919236;29;20499;-73
2022/03/29 06:22:12;;;;;;;30.60;16.13;;;;;;;;;;4919044;29;20115;-73
2022/03/29 06:24:43;;;;;;;30.58;17.00;;;;;;;;;;4919154;29;20036;-73
2022/03/29 06:27:16;;;;;;;33.55;21.10;;;;;;;;;;4918826;29;20072;-73
2022/03/29 06:29:44;;;;;;;31.98;16.80;;;;;;;;;;4918678;29;20055;-74
2022/03/29 06:32:42;;;;;;;41.65;18.35;;;;;;;;;;4918866;29;20388;-73
2022/03/29 06:35:13;;;;;;;30.67;16.95;;;;;;;;;;4918952;29;20522;-73
2022/03/29 06:37:50;;;;;;;31.45;17.20;;;;;;;;;;4918984;29;20048;-74
2022/03/29 06:40:21;;;;;;;27.35;16.52;;;;;;;;;;4918801;29;20060;-74
2022/03/29 06:43:04;;;;;;;30.88;16.42;;;;;;;;;;4918884;29;20479;-74
2022/03/29 06:57:22;;;;;;;29.90;15.80;;;;;;;;;;4956248;29;20135;-74
2022/03/29 07:00:15;;;;;;;30.70;15.95;;;;;;;;;;4956271;29;20071;-74
2022/03/29 07:03:10;;;;;;;26.95;15.50;;;;;;;;;;4956597;29;20086;-74
2022/03/29 07:05:46;;;;;;;35.47;18.13;;;;;;;;;;4956726;29;20035;-74
2022/03/29 07:08:22;;;;;;;26.55;16.38;;;;;;;;;;4956518;29;20043;-74
2022/03/29 07:13:47;;;;;;;24.95;15.23;;;;;;;;;;4956225;29;20054;-73
2022/03/29 07:18:54;;;;;;;24.77;14.10;;;;;;;;;;4956471;29;19922;-72
2022/03/29 07:21:23;;;;;;;23.60;15.20;;;;;;;;;;4956182;29;20501;-72
2022/03/29 07:23:55;;;;;;;38.22;27.27;;;;;;;;;;4956264;29;20051;-72
2022/03/29 07:26:30;;;;;;;27.45;15.60;;;;;;;;;;4955364;29;20077;-74
2022/03/29 07:28:59;;;;;;;22.02;13.98;;;;;;;;;;4955355;29;20078;-74
2022/03/29 07:31:51;;;;;;;33.83;14.00;;;;;;;;;;4956274;29;20496;-72
2022/03/29 07:34:22;;;;;;;21.38;12.90;;;;;;;;;;4956041;29;20039;-72
2022/03/29 07:37:00;;;;;;;20.05;13.43;;;;;;;;;;4956083;29;20047;-73
2022/03/29 07:39:34;;;;;;;21.95;12.35;;;;;;;;;;4955263;28;20141;-73
2022/03/29 07:42:01;;;;;;;26.38;13.95;;;;;;;;;;4954903;29;20050;-73
2022/03/29 07:44:29;;;;;;;23.98;12.65;;;;;;;;;;4963054;28;20051;-72
2022/03/29 07:46:56;;;;;;;27.90;13.10;;;;;;;;;;4954402;28;20070;-72
2022/03/29 07:49:24;;;;;;;26.38;12.90;;;;;;;;;;4937568;29;20048;-74
2022/03/29 07:52:16;;;;;;;26.17;14.45;;;;;;;;;;4936620;29;20505;-73
2022/03/29 07:54:43;;;;;;;25.92;13.05;;;;;;;;;;4949958;28;20154;-73
2022/03/29 07:57:12;;;;;;;28.83;13.50;;;;;;;;;;4955559;29;20047;-73
2022/03/29 08:00:31;;;;;;;21.27;14.10;;;;;;;;;;4955852;29;20039;-73
2022/03/29 08:02:49;;;;;;;27.63;14.75;;;;;;;;;;4955501;29;20039;-73
2022/03/29 08:05:16;;;;;;;21.50;12.85;;;;;;;;;;4938292;29;20530;-71
2022/03/29 08:07:46;;;;;;;23.45;13.00;;;;;;;;;;4955576;29;20051;-72
2022/03/29 08:10:14;;;;;;;25.02;12.65;;;;;;;;;;4955192;29;20040;-71
2022/03/29 08:12:42;;;;;;;20.98;11.18;;;;;;;;;;4954898;29;20039;-72
2022/03/29 08:15:11;;;;;;;26.60;11.32;;;;;;;;;;4937733;29;20043;-72
2022/03/29 08:17:38;;;;;;;17.70;10.73;;;;;;;;;;4954767;29;20032;-72
2022/03/29 08:20:07;;;;;;;15.85;10.05;;;;;;;;;;4954959;29;20549;-74
2022/03/29 08:22:35;;;;;;;24.67;10.15;;;;;;;;;;4955533;29;20379;-72
2022/03/29 08:25:04;;;;;;;16.60;9.95;;;;;;;;;;4937961;29;20047;-72
2022/03/29 08:27:33;;;;;;;21.67;10.90;;;;;;;;;;4955039;29;20031;-72
2022/03/29 08:30:02;;;;;;;17.95;10.65;;;;;;;;;;4955290;29;20050;-71
2022/03/29 08:32:55;;;;;;;24.08;10.57;;;;;;;;;;4954885;29;20043;-72
2022/03/29 08:39:12;;;;;;;18.33;11.32;;;;;;;;;;4955133;29;20051;-72
2022/03/29 08:42:08;;;;;;;21.00;11.50;;;;;;;;;;4955247;29;20039;-73
2022/03/29 08:44:35;;;;;;;23.30;12.23;;;;;;;;;;4951849;29;20085;-72
2022/03/29 08:47:06;;;;;;;20.15;11.85;;;;;;;;;;4954443;29;20050;-73
2022/03/29 08:49:34;;;;;;;22.23;12.63;;;;;;;;;;4955049;29;20107;-72
2022/03/29 08:52:04;;;;;;;26.52;13.60;;;;;;;;;;4958395;28;20396;-71
2022/03/29 08:54:34;;;;;;;28.65;14.20;;;;;;;;;;4939661;29;20058;-72
2022/03/29 08:57:04;;;;;;;65.88;49.00;;;;;;;;;;4939789;29;20042;-72
2022/03/29 08:59:33;;;;;;;25.50;14.15;;;;;;;;;;4939504;29;20059;-71
2022/03/29 09:02:28;;;;;;;27.33;14.02;;;;;;;;;;4939699;29;20079;-76
2022/03/29 09:05:09;;;;;;;24.42;13.35;;;;;;;;;;4939987;29;20051;-76
2022/03/29 09:07:55;;;;;;;22.17;13.63;;;;;;;;;;4939205;29;20068;-75
2022/03/29 09:10:42;;;;;;;23.48;14.40;;;;;;;;;;4939022;29;20044;-76
2022/03/29 09:13:31;;;;;;;21.67;14.52;;;;;;;;;;4939468;29;20043;-75
2022/03/29 09:16:00;;;;;;;19.70;13.45;;;;;;;;;;4939408;29;20047;-77
2022/03/29 09:19:01;;;;;;;24.15;14.18;;;;;;;;;;4939000;29;20040;-76
2022/03/29 09:21:45;;;;;;;26.40;13.30;;;;;;;;;;4938971;29;20040;-76
2022/03/29 09:27:49;;;;;;;19.35;12.60;;;;;;;;;;4938778;29;20449;-75
2022/03/29 09:30:16;;;;;;;20.60;12.85;;;;;;;;;;4938410;29;20076;-76
2022/03/29 09:33:00;;;;;;;22.23;13.57;;;;;;;;;;4939139;29;20043;-75
2022/03/29 09:35:30;;;;;;;19.80;12.52;;;;;;;;;;4939040;29;20454;-75
2022/03/29 09:38:01;;;;;;;21.95;13.25;;;;;;;;;;4938853;29;20050;-76
2022/03/29 09:40:38;;;;;;;22.52;13.75;;;;;;;;;;4938988;29;20044;-76
2022/03/29 09:43:27;;;;;;;21.45;12.55;;;;;;;;;;4938888;29;20148;-76
2022/03/29 09:46:00;;;;;;;22.73;12.52;;;;;;;;;;4938694;29;20495;-76
2022/03/29 09:48:40;;;;;;;19.35;12.13;;;;;;;;;;4937383;29;20059;-75
2022/03/29 09:51:08;;;;;;;21.25;11.88;;;;;;;;;;4938936;29;20044;-76
2022/03/29 09:53:51;;;;;;;21.38;11.90;;;;;;;;;;4938449;29;20083;-76
2022/03/29 09:56:24;;;;;;;16.75;11.20;;;;;;;;;;4938878;29;20402;-75
2022/03/29 09:59:14;;;;;;;16.92;10.40;;;;;;;;;;4938668;29;20074;-76
2022/03/29 10:01:51;;;;;;;17.60;11.65;;;;;;;;;;4938052;29;20111;-76
2022/03/29 10:04:44;;;;;;;17.77;9.95;;;;;;;;;;4938858;29;20040;-76
2022/03/29 10:07:37;;;;;;;15.43;9.68;;;;;;;;;;4938548;29;20051;-76
2022/03/29 10:10:09;;;;;;;15.88;9.32;;;;;;;;;;4938466;29;20071;-76
2022/03/29 10:12:44;;;;;;;13.90;9.73;;;;;;;;;;4938366;29;20046;-75
2022/03/29 10:16:00;;;;;;;22.30;10.85;;;;;;;;;;4938286;29;20043;-75
2022/03/29 10:18:32;;;;;;;18.75;9.68;;;;;;;;;;4938258;29;20533;-75
2022/03/29 10:21:01;;;;;;;16.83;9.65;;;;;;;;;;4939291;28;20046;-77
2022/03/29 10:23:54;;;;;;;16.92;9.55;;;;;;;;;;4957478;29;20043;-78
2022/03/29 10:26:27;;;;;;;18.02;9.68;;;;;;;;;;4956279;29;20043;-76
2022/03/29 10:29:03;;;;;;;16.58;9.65;;;;;;;;;;4958192;29;20553;-77
2022/03/29 10:31:39;;;;;;;15.45;9.50;;;;;;;;;;4972152;28;20073;-78
2022/03/29 10:34:16;;;;;;;24.95;9.82;;;;;;;;;;4977057;28;20050;-77
2022/03/29 10:37:04;;;;;;;21.73;9.35;;;;;;;;;;4976691;28;20077;-77
2022/03/29 10:39:51;;;;;;;14.30;8.50;;;;;;;;;;4976489;28;20047;-78
2022/03/29 10:42:27;;;;;;;12.45;8.63;;;;;;;;;;4963816;28;20043;-76
2022/03/29 10:48:09;;;;;;;12.95;8.25;;;;;;;;;;4958422;29;20091;-75
2022/03/29 10:50:58;;;;;;;22.23;9.18;;;;;;;;;;4956890;29;20040;-75
2022/03/29 10:53:28;;;;;;;14.48;8.32;;;;;;;;;;4956916;29;20094;-76
2022/03/29 10:56:15;;;;;;;10.95;7.85;;;;;;;;;;4956499;29;20050;-76
2022/03/29 10:59:05;;;;;;;18.02;8.48;;;;;;;;;;4956373;29;20051;-73
2022/03/29 11:01:35;;;;;;;14.23;8.70;;;;;;;;;;4956829;29;20062;-73
2022/03/29 11:04:26;;;;;;;12.10;7.63;;;;;;;;;;4956688;29;20402;-72
2022/03/29 11:07:07;;;;;;;13.68;7.97;;;;;;;;;;4956381;29;20165;-73
2022/03/29 11:09:37;;;;;;;15.45;8.23;;;;;;;;;;4956324;29;20043;-73
2022/03/29 11:12:06;;;;;;;16.23;8.52;;;;;;;;;;4956427;29;20047;-73
2022/03/29 11:14:37;;;;;;;16.70;8.55;;;;;;;;;;4955436;28;20039;-73
2022/03/29 11:17:17;;;;;;;17.40;8.15;;;;;;;;;;4956249;29;20047;-73
2022/03/29 11:19:49;;;;;;;24.52;14.45;;;;;;;;;;4956211;29;20203;-73
2022/03/29 11:22:23;;;;;;;23.85;16.42;;;;;;;;;;4956264;29;20042;-73
2022/03/29 11:24:52;;;;;;;14.35;8.00;;;;;;;;;;4956224;29;20095;-74
2022/03/29 11:27:29;;;;;;;18.02;8.25;;;;;;;;;;4956086;29;20043;-73
2022/03/29 11:30:00;;;;;;;15.13;8.43;;;;;;;;;;4956176;29;20110;-73
2022/03/29 11:32:34;;;;;;;14.98;8.32;;;;;;;;;;4955944;29;20517;-73
2022/03/29 11:35:08;;;;;;;17.35;8.63;;;;;;;;;;4955965;29;20062;-73
2022/03/29 11:37:39;;;;;;;16.20;8.73;;;;;;;;;;4956145;29;20050;-73
2022/03/29 11:40:10;;;;;;;14.63;8.13;;;;;;;;;;4955911;29;20261;-73
2022/03/29 11:42:51;;;;;;;18.30;9.10;;;;;;;;;;4956140;29;20086;-73
2022/03/29 11:45:30;;;;;;;16.02;8.35;;;;;;;;;;5110675;27;20438;-73
2022/03/29 11:48:04;;;;;;;14.55;8.85;;;;;;;;;;5111546;28;20066;-73
2022/03/29 11:50:44;;;;;;;17.52;8.20;;;;;;;;;;5110985;28;20046;-73
2022/03/29 11:53:16;;;;;;;19.08;8.52;;;;;;;;;;5111257;28;20044;-73
2022/03/29 11:55:52;;;;;;;17.02;9.30;;;;;;;;;;5110539;28;20059;-73
2022/03/29 12:02:03;;;;;;;16.30;8.73;;;;;;;;;;5110926;28;20397;-73
2022/03/29 12:04:57;;;;;;;19.58;8.40;;;;;;;;;;5110942;28;20424;-73
2022/03/29 12:07:50;;;;;;;16.50;8.93;;;;;;;;;;5110881;28;20056;-73
2022/03/29 12:10:26;;;;;;;15.30;8.20;;;;;;;;;;5110691;28;20078;-73
2022/03/29 12:13:04;;;;;;;17.05;8.60;;;;;;;;;;5111045;28;20480;-73
2022/03/29 12:15:32;;;;;;;15.13;8.40;;;;;;;;;;5110646;28;20047;-73
2022/03/29 12:18:45;;;;;;;15.43;8.15;;;;;;;;;;5110942;28;20043;-72
2022/03/29 12:21:38;;;;;;;18.38;8.90;;;;;;;;;;5110823;28;20040;-73
2022/03/29 12:24:08;;;;;;;23.15;8.60;;;;;;;;;;5110672;28;20453;-71
2022/03/29 12:26:53;;;;;;;13.88;8.48;;;;;;;;;;5110362;28;20089;-72
2022/03/29 12:29:25;;;;;;;14.00;9.20;;;;;;;;;;5110126;28;20051;-72
2022/03/29 12:31:54;;;;;;;13.57;8.85;;;;;;;;;;5110173;28;20036;-72
2022/03/29 12:34:24;;;;;;;14.82;9.48;;;;;;;;;;5110318;28;20506;-72
2022/03/29 12:37:17;;;;;;;19.00;8.68;;;;;;;;;;5110247;28;20115;-73
2022/03/29 12:39:54;;;;;;;14.90;8.50;;;;;;;;;;5110486;28;20036;-73
2022/03/29 12:42:34;;;;;;;16.50;7.93;;;;;;;;;;5110389;28;20059;-73
2022/03/29 12:45:07;;;;;;;15.10;8.30;;;;;;;;;;5109773;28;20048;-73
2022/03/29 12:47:35;;;;;;;13.63;8.10;;;;;;;;;;5109920;28;20371;-73
2022/03/29 12:50:05;;;;;;;18.63;8.95;;;;;;;;;;5109770;28;20047;-73
2022/03/29 12:52:41;;;;;;;15.65;7.88;;;;;;;;;;5110067;28;20040;-73
2022/03/29 12:55:14;;;;;;;20.17;9.25;;;;;;;;;;5105790;28;20097;-73
2022/03/29 12:57:44;;;;;;;13.88;8.43;;;;;;;;;;5096091;28;20032;-73
2022/03/29 13:00:14;;;;;;;15.80;9.00;;;;;;;;;;5077861;28;20052;-73
2022/03/29 13:03:08;;;;;;;18.85;9.45;;;;;;;;;;5096456;28;20420;-73
2022/03/29 13:06:21;;;;;;;18.48;9.38;;;;;;;;;;5096276;28;20055;-73
2022/03/29 13:09:00;;;;;;;15.02;9.07;;;;;;;;;;5096370;28;20127;-73
2022/03/29 13:11:32;;;;;;;17.73;8.90;;;;;;;;;;5096020;28;20087;-72
2022/03/29 13:14:06;;;;;;;16.83;9.88;;;;;;;;;;5095881;28;20071;-72
2022/03/29 13:16:33;;;;;;;14.48;8.90;;;;;;;;;;5096243;28;20044;-73
2022/03/29 13:19:09;;;;;;;12.65;8.75;;;;;;;;;;5095858;28;20543;-73
2022/03/29 13:21:39;;;;;;;20.17;8.60;;;;;;;;;;5095789;28;20040;-73
2022/03/29 13:24:32;;;;;;;14.63;8.68;;;;;;;;;;5096010;28;20037;-72
2022/03/29 13:27:00;;;;;;;17.67;8.88;;;;;;;;;;5095895;28;20055;-72
2022/03/29 13:29:33;;;;;;;16.58;8.90;;;;;;;;;;5095675;28;20047;-72
2022/03/29 13:35:19;;;;;;;19.65;8.63;;;;;;;;;;4995675;28;20092;-72
2022/03/29 13:37:46;;;;;;;19.75;8.95;;;;;;;;;;4995889;28;20038;-72
2022/03/29 13:40:14;;;;;;;17.08;8.88;;;;;;;;;;4995805;28;20460;-72
2022/03/29 13:42:42;;;;;;;16.80;8.82;;;;;;;;;;4995943;28;20408;-73
2022/03/29 13:45:10;;;;;;;14.52;8.63;;;;;;;;;;4995426;28;20034;-73
2022/03/29 13:47:43;;;;;;;17.45;8.52;;;;;;;;;;4995816;28;20117;-73
2022/03/29 13:50:11;;;;;;;16.33;8.57;;;;;;;;;;4996261;28;20472;-73
2022/03/29 13:53:04;;;;;;;17.65;8.50;;;;;;;;;;4995716;28;20042;-73
2022/03/29 13:55:35;;;;;;;15.80;8.55;;;;;;;;;;4995745;28;20042;-72
2022/03/29 13:58:11;;;;;;;16.95;9.40;;;;;;;;;;4995955;28;20117;-68
2022/03/29 14:00:40;;;;;;;16.52;9.50;;;;;;;;;;4995428;28;20046;-67
2022/03/29 14:03:33;;;;;;;14.05;9.50;;;;;;;;;;4995672;28;20034;-67
2022/03/29 14:06:04;;;;;;;16.48;9.75;;;;;;;;;;4995427;28;20042;-68
2022/03/29 14:08:36;;;;;;;18.13;9.98;;;;;;;;;;4994588;28;20081;-68
2022/03/29 14:11:03;;;;;;;14.20;9.10;;;;;;;;;;4995353;28;20113;-68
2022/03/29 14:13:56;;;;;;;15.70;9.13;;;;;;;;;;4995216;28;20046;-68
2022/03/29 14:16:50;;;;;;;13.18;8.60;;;;;;;;;;4995457;28;20042;-68
2022/03/29 14:19:23;;;;;;;19.58;9.45;;;;;;;;;;4995085;28;20042;-68
2022/03/29 14:22:04;;;;;;;18.90;8.88;;;;;;;;;;4995065;28;20042;-68
2022/03/29 14:24:35;;;;;;;13.73;9.18;;;;;;;;;;4994349;28;20030;-68
2022/03/29 14:27:15;;;;;;;15.80;9.70;;;;;;;;;;4994478;28;20042;-68
2022/03/29 14:30:07;;;;;;;16.52;8.82;;;;;;;;;;4994951;28;20130;-68
2022/03/29 14:33:01;;;;;;;16.25;8.90;;;;;;;;;;4994812;28;20488;-67
2022/03/29 14:35:34;;;;;;;14.90;8.82;;;;;;;;;;4994894;28;20511;-66
2022/03/29 14:38:02;;;;;;;18.90;9.27;;;;;;;;;;4994264;28;20047;-69
2022/03/29 14:40:34;;;;;;;14.13;8.73;;;;;;;;;;4995188;28;20046;-67
2022/03/29 14:43:02;;;;;;;20.30;9.38;;;;;;;;;;4994290;28;20042;-67
2022/03/29 14:45:35;;;;;;;14.73;8.27;;;;;;;;;;4994931;28;20046;-67
2022/03/29 14:48:03;;;;;;;13.15;8.60;;;;;;;;;;4994875;28;20052;-67
2022/03/29 14:50:55;;;;;;;15.38;9.30;;;;;;;;;;4994970;28;20042;-68
2022/03/29 14:56:40;;;;;;;16.35;9.68;;;;;;;;;;5053578;28;20048;-68
2022/03/29 14:59:07;;;;;;;14.75;9.15;;;;;;;;;;5053561;28;20498;-67
2022/03/29 15:01:35;;;;;;;17.65;9.27;;;;;;;;;;5053461;28;20064;-68
2022/03/29 15:04:03;;;;;;;15.88;9.27;;;;;;;;;;5053490;28;20128;-67
2022/03/29 15:06:30;;;;;;;14.55;9.02;;;;;;;;;;5053336;28;20033;-67
2022/03/29 15:08:58;;;;;;;15.65;9.18;;;;;;;;;;5053216;28;20037;-68
2022/03/29 15:11:25;;;;;;;18.77;8.82;;;;;;;;;;5053793;28;20041;-68
2022/03/29 15:13:53;;;;;;;14.00;8.75;;;;;;;;;;5053510;28;20045;-68
2022/03/29 15:16:20;;;;;;;18.17;9.15;;;;;;;;;;5053089;28;20056;-68
2022/03/29 15:18:48;;;;;;;14.77;9.15;;;;;;;;;;5053284;28;20037;-68
2022/03/29 15:21:16;;;;;;;20.45;9.43;;;;;;;;;;5053204;28;20041;-67
2022/03/29 15:23:44;;;;;;;22.15;10.20;;;;;;;;;;5053376;28;20460;-67
2022/03/29 15:26:11;;;;;;;16.88;9.95;;;;;;;;;;5053075;28;20037;-68
2022/03/29 15:28:43;;;;;;;18.15;10.20;;;;;;;;;;5052968;28;20060;-67
2022/03/29 15:31:11;;;;;;;20.83;9.68;;;;;;;;;;5052124;28;20037;-67
2022/03/29 15:34:05;;;;;;;14.45;9.65;;;;;;;;;;5052730;28;20091;-67
2022/03/29 15:37:02;;;;;;;17.65;9.15;;;;;;;;;;5033016;28;20116;-68
2022/03/29 15:39:32;;;;;;;19.40;10.45;;;;;;;;;;5032888;28;20088;-68
2022/03/29 15:42:01;;;;;;;16.95;9.95;;;;;;;;;;5040458;28;20033;-68
2022/03/29 15:44:28;;;;;;;16.50;9.48;;;;;;;;;;5053229;28;20045;-68
2022/03/29 15:46:57;;;;;;;17.60;10.32;;;;;;;;;;5051457;28;20095;-68
2022/03/29 15:49:26;;;;;;;21.25;10.35;;;;;;;;;;5053127;28;20144;-68
2022/03/29 15:51:53;;;;;;;21.50;11.13;;;;;;;;;;5053226;28;20037;-69
2022/03/29 15:54:21;;;;;;;20.30;11.27;;;;;;;;;;5054957;28;20041;-68
2022/03/29 15:56:48;;;;;;;19.85;10.57;;;;;;;;;;5093075;28;20378;-68
2022/03/29 15:59:16;;;;;;;22.13;10.98;;;;;;;;;;5093553;28;20054;-68